sensor_id;sensor_type;location;lat;lon;timestamp;temperature;humidity
40868;DHT22;26586;50.708;22.412;2023-04-05T00:01:49;13.20;38.40
40868;DHT22;26586;50.708;22.412;2023-04-05T00:04:16;13.10;38.30
40868;DHT22;26586;50.708;22.412;2023-04-05T00:06:47;13.10;38.40
40868;DHT22;26586;50.708;22.412;2023-04-05T00:09:19;13.10;38.30
40868;DHT22;26586;50.708;22.412;2023-04-05T00:11:45;13.10;38.30
40868;DHT22;26586;50.708;22.412;2023-04-05T00:14:12;13.10;38.50
40868;DHT22;26586;50.708;22.412;2023-04-05T00:16:39;13.10;38.60
40868;DHT22;26586;50.708;22.412;2023-04-05T00:19:05;13.10;38.70
40868;DHT22;26586;50.708;22.412;2023-04-05T00:21:31;13.00;38.60
40868;DHT22;26586;50.708;22.412;2023-04-05T00:23:58;13.00;38.70
40868;DHT22;26586;50.708;22.412;2023-04-05T00:26:25;13.00;38.60
40868;DHT22;26586;50.708;22.412;2023-04-05T00:28:51;13.00;38.60
40868;DHT22;26586;50.708;22.412;2023-04-05T00:31:18;13.00;38.70
40868;DHT22;26586;50.708;22.412;2023-04-05T00:33:45;13.00;38.70
40868;DHT22;26586;50.708;22.412;2023-04-05T00:36:13;13.00;38.70
40868;DHT22;26586;50.708;22.412;2023-04-05T00:38:41;12.90;38.80
40868;DHT22;26586;50.708;22.412;2023-04-05T00:41:07;12.90;38.80
40868;DHT22;26586;50.708;22.412;2023-04-05T00:43:34;12.90;39.00
40868;DHT22;26586;50.708;22.412;2023-04-05T00:46:04;12.90;39.00
40868;DHT22;26586;50.708;22.412;2023-04-05T00:48:31;12.90;39.00
40868;DHT22;26586;50.708;22.412;2023-04-05T00:50:58;12.90;39.30
40868;DHT22;26586;50.708;22.412;2023-04-05T00:53:25;12.90;39.00
40868;DHT22;26586;50.708;22.412;2023-04-05T00:55:54;12.80;38.90
40868;DHT22;26586;50.708;22.412;2023-04-05T00:58:21;12.80;38.90
40868;DHT22;26586;50.708;22.412;2023-04-05T01:03:31;12.80;39.00
40868;DHT22;26586;50.708;22.412;2023-04-05T01:08:54;12.70;39.10
40868;DHT22;26586;50.708;22.412;2023-04-05T01:11:25;12.70;39.40
40868;DHT22;26586;50.708;22.412;2023-04-05T01:13:59;12.70;39.50
40868;DHT22;26586;50.708;22.412;2023-04-05T01:16:25;12.70;39.20
40868;DHT22;26586;50.708;22.412;2023-04-05T01:18:56;12.70;39.30
40868;DHT22;26586;50.708;22.412;2023-04-05T01:21:35;12.70;39.50
40868;DHT22;26586;50.708;22.412;2023-04-05T01:30:17;12.70;39.50
40868;DHT22;26586;50.708;22.412;2023-04-05T01:35:39;12.60;39.20
40868;DHT22;26586;50.708;22.412;2023-04-05T01:38:11;12.70;39.20
40868;DHT22;26586;50.708;22.412;2023-04-05T01:40:42;12.60;39.80
40868;DHT22;26586;50.708;22.412;2023-04-05T01:43:15;12.60;40.00
40868;DHT22;26586;50.708;22.412;2023-04-05T01:45:42;12.60;39.90
40868;DHT22;26586;50.708;22.412;2023-04-05T01:48:09;12.60;39.70
40868;DHT22;26586;50.708;22.412;2023-04-05T01:50:36;12.60;39.50
40868;DHT22;26586;50.708;22.412;2023-04-05T01:53:02;12.60;39.60
40868;DHT22;26586;50.708;22.412;2023-04-05T01:55:28;12.60;39.40
40868;DHT22;26586;50.708;22.412;2023-04-05T01:57:56;12.60;39.80
40868;DHT22;26586;50.708;22.412;2023-04-05T02:00:23;12.50;39.40
40868;DHT22;26586;50.708;22.412;2023-04-05T02:02:49;12.60;40.00
40868;DHT22;26586;50.708;22.412;2023-04-05T02:05:15;12.50;39.30
40868;DHT22;26586;50.708;22.412;2023-04-05T02:07:41;12.50;39.20
40868;DHT22;26586;50.708;22.412;2023-04-05T02:10:08;12.50;39.10
40868;DHT22;26586;50.708;22.412;2023-04-05T02:12:34;12.50;39.60
40868;DHT22;26586;50.708;22.412;2023-04-05T02:15:00;12.50;39.30
40868;DHT22;26586;50.708;22.412;2023-04-05T02:17:27;12.50;39.20
40868;DHT22;26586;50.708;22.412;2023-04-05T02:19:59;12.50;39.20
40868;DHT22;26586;50.708;22.412;2023-04-05T02:22:29;12.40;39.20
40868;DHT22;26586;50.708;22.412;2023-04-05T02:24:55;12.40;39.30
40868;DHT22;26586;50.708;22.412;2023-04-05T02:27:21;12.40;39.20
40868;DHT22;26586;50.708;22.412;2023-04-05T02:29:48;12.40;39.20
40868;DHT22;26586;50.708;22.412;2023-04-05T02:32:14;12.40;39.00
40868;DHT22;26586;50.708;22.412;2023-04-05T02:34:40;12.40;39.00
40868;DHT22;26586;50.708;22.412;2023-04-05T02:37:06;12.30;39.20
40868;DHT22;26586;50.708;22.412;2023-04-05T02:39:33;12.40;39.10
40868;DHT22;26586;50.708;22.412;2023-04-05T02:41:59;12.40;39.00
40868;DHT22;26586;50.708;22.412;2023-04-05T02:44:25;12.30;38.80
40868;DHT22;26586;50.708;22.412;2023-04-05T02:46:51;12.30;39.00
40868;DHT22;26586;50.708;22.412;2023-04-05T02:49:18;12.30;39.20
40868;DHT22;26586;50.708;22.412;2023-04-05T02:51:44;12.30;39.10
40868;DHT22;26586;50.708;22.412;2023-04-05T02:54:10;12.30;39.20
40868;DHT22;26586;50.708;22.412;2023-04-05T02:56:36;12.30;39.30
40868;DHT22;26586;50.708;22.412;2023-04-05T02:59:03;12.30;39.40
40868;DHT22;26586;50.708;22.412;2023-04-05T03:01:29;12.30;39.60
40868;DHT22;26586;50.708;22.412;2023-04-05T03:03:57;12.20;39.10
40868;DHT22;26586;50.708;22.412;2023-04-05T03:06:23;12.20;39.10
40868;DHT22;26586;50.708;22.412;2023-04-05T03:08:49;12.30;39.30
40868;DHT22;26586;50.708;22.412;2023-04-05T03:11:15;12.20;40.30
40868;DHT22;26586;50.708;22.412;2023-04-05T03:13:42;12.20;40.40
40868;DHT22;26586;50.708;22.412;2023-04-05T03:16:08;12.20;40.50
40868;DHT22;26586;50.708;22.412;2023-04-05T03:18:35;12.10;40.20
40868;DHT22;26586;50.708;22.412;2023-04-05T03:21:01;12.20;39.60
40868;DHT22;26586;50.708;22.412;2023-04-05T03:23:30;12.20;41.10
40868;DHT22;26586;50.708;22.412;2023-04-05T03:26:06;12.20;40.40
40868;DHT22;26586;50.708;22.412;2023-04-05T03:28:32;12.20;39.90
40868;DHT22;26586;50.708;22.412;2023-04-05T03:30:58;12.10;43.20
40868;DHT22;26586;50.708;22.412;2023-04-05T03:33:25;12.20;40.20
40868;DHT22;26586;50.708;22.412;2023-04-05T03:35:51;12.20;39.60
40868;DHT22;26586;50.708;22.412;2023-04-05T03:38:17;12.20;41.20
40868;DHT22;26586;50.708;22.412;2023-04-05T03:40:43;12.20;40.10
40868;DHT22;26586;50.708;22.412;2023-04-05T03:43:10;12.20;39.40
40868;DHT22;26586;50.708;22.412;2023-04-05T03:45:36;12.20;39.70
40868;DHT22;26586;50.708;22.412;2023-04-05T03:48:03;12.20;39.20
40868;DHT22;26586;50.708;22.412;2023-04-05T03:50:29;12.10;39.20
40868;DHT22;26586;50.708;22.412;2023-04-05T03:52:56;12.20;39.20
40868;DHT22;26586;50.708;22.412;2023-04-05T03:55:22;12.10;39.20
40868;DHT22;26586;50.708;22.412;2023-04-05T03:57:48;12.20;39.00
40868;DHT22;26586;50.708;22.412;2023-04-05T04:00:14;12.10;39.30
40868;DHT22;26586;50.708;22.412;2023-04-05T04:02:43;12.10;39.70
40868;DHT22;26586;50.708;22.412;2023-04-05T04:05:13;12.10;39.80
40868;DHT22;26586;50.708;22.412;2023-04-05T04:07:41;12.10;40.90
40868;DHT22;26586;50.708;22.412;2023-04-05T04:10:10;12.10;41.50
40868;DHT22;26586;50.708;22.412;2023-04-05T04:12:37;12.20;41.60
40868;DHT22;26586;50.708;22.412;2023-04-05T04:15:04;12.10;40.60
40868;DHT22;26586;50.708;22.412;2023-04-05T04:17:32;12.10;41.40
40868;DHT22;26586;50.708;22.412;2023-04-05T04:19:59;12.20;42.00
40868;DHT22;26586;50.708;22.412;2023-04-05T04:22:26;12.10;41.40
40868;DHT22;26586;50.708;22.412;2023-04-05T04:25:00;12.10;42.10
40868;DHT22;26586;50.708;22.412;2023-04-05T04:27:30;12.10;42.00
40868;DHT22;26586;50.708;22.412;2023-04-05T04:29:57;12.20;41.30
40868;DHT22;26586;50.708;22.412;2023-04-05T04:32:30;12.10;41.10
40868;DHT22;26586;50.708;22.412;2023-04-05T04:35:14;12.10;43.10
40868;DHT22;26586;50.708;22.412;2023-04-05T04:37:54;12.10;41.90
40868;DHT22;26586;50.708;22.412;2023-04-05T04:40:24;12.10;44.40
40868;DHT22;26586;50.708;22.412;2023-04-05T04:42:52;12.20;44.70
40868;DHT22;26586;50.708;22.412;2023-04-05T04:45:23;12.20;45.60
40868;DHT22;26586;50.708;22.412;2023-04-05T04:47:50;12.20;45.10
40868;DHT22;26586;50.708;22.412;2023-04-05T04:50:19;12.20;45.30
40868;DHT22;26586;50.708;22.412;2023-04-05T04:52:46;12.30;46.40
40868;DHT22;26586;50.708;22.412;2023-04-05T04:55:12;12.30;48.00
40868;DHT22;26586;50.708;22.412;2023-04-05T04:57:40;12.30;48.20
40868;DHT22;26586;50.708;22.412;2023-04-05T05:00:08;12.40;48.70
40868;DHT22;26586;50.708;22.412;2023-04-05T05:02:39;12.40;48.80
40868;DHT22;26586;50.708;22.412;2023-04-05T05:05:06;12.50;48.90
40868;DHT22;26586;50.708;22.412;2023-04-05T05:07:34;12.50;49.80
40868;DHT22;26586;50.708;22.412;2023-04-05T05:10:01;12.50;49.70
40868;DHT22;26586;50.708;22.412;2023-04-05T05:12:27;12.60;48.40
40868;DHT22;26586;50.708;22.412;2023-04-05T05:14:54;12.60;49.20
40868;DHT22;26586;50.708;22.412;2023-04-05T05:17:21;12.60;50.00
40868;DHT22;26586;50.708;22.412;2023-04-05T05:19:48;12.70;49.10
40868;DHT22;26586;50.708;22.412;2023-04-05T05:22:15;12.70;48.90
40868;DHT22;26586;50.708;22.412;2023-04-05T05:24:42;12.70;48.70
40868;DHT22;26586;50.708;22.412;2023-04-05T05:27:08;12.70;47.60
40868;DHT22;26586;50.708;22.412;2023-04-05T05:29:34;12.80;47.20
40868;DHT22;26586;50.708;22.412;2023-04-05T05:32:01;12.80;50.10
40868;DHT22;26586;50.708;22.412;2023-04-05T05:34:27;12.90;45.30
40868;DHT22;26586;50.708;22.412;2023-04-05T05:36:54;12.80;44.70
40868;DHT22;26586;50.708;22.412;2023-04-05T05:39:20;12.80;47.70
40868;DHT22;26586;50.708;22.412;2023-04-05T05:41:47;12.90;47.80
40868;DHT22;26586;50.708;22.412;2023-04-05T05:44:13;12.90;44.10
40868;DHT22;26586;50.708;22.412;2023-04-05T05:46:39;12.90;48.60
40868;DHT22;26586;50.708;22.412;2023-04-05T05:49:06;12.90;45.20
40868;DHT22;26586;50.708;22.412;2023-04-05T05:51:32;13.00;46.10
40868;DHT22;26586;50.708;22.412;2023-04-05T05:53:58;13.00;45.10
40868;DHT22;26586;50.708;22.412;2023-04-05T05:56:24;13.00;44.00
40868;DHT22;26586;50.708;22.412;2023-04-05T05:58:51;13.00;50.80
40868;DHT22;26586;50.708;22.412;2023-04-05T06:01:18;13.00;47.10
40868;DHT22;26586;50.708;22.412;2023-04-05T06:03:47;13.00;45.50
40868;DHT22;26586;50.708;22.412;2023-04-05T06:06:15;13.10;47.90
40868;DHT22;26586;50.708;22.412;2023-04-05T06:08:41;13.10;48.10
40868;DHT22;26586;50.708;22.412;2023-04-05T06:11:19;13.10;49.40
40868;DHT22;26586;50.708;22.412;2023-04-05T06:13:46;13.10;45.00
40868;DHT22;26586;50.708;22.412;2023-04-05T06:16:12;13.10;44.30
40868;DHT22;26586;50.708;22.412;2023-04-05T06:18:38;13.10;46.00
40868;DHT22;26586;50.708;22.412;2023-04-05T06:21:05;13.20;47.60
40868;DHT22;26586;50.708;22.412;2023-04-05T06:23:31;13.20;47.20
40868;DHT22;26586;50.708;22.412;2023-04-05T06:25:57;13.20;47.00
40868;DHT22;26586;50.708;22.412;2023-04-05T06:28:23;13.20;43.40
40868;DHT22;26586;50.708;22.412;2023-04-05T06:30:50;13.20;44.20
40868;DHT22;26586;50.708;22.412;2023-04-05T06:33:16;13.20;45.70
40868;DHT22;26586;50.708;22.412;2023-04-05T06:35:42;13.30;49.60
40868;DHT22;26586;50.708;22.412;2023-04-05T06:38:08;13.30;46.60
40868;DHT22;26586;50.708;22.412;2023-04-05T06:40:35;13.30;50.00
40868;DHT22;26586;50.708;22.412;2023-04-05T06:43:01;13.40;43.00
40868;DHT22;26586;50.708;22.412;2023-04-05T06:45:27;13.40;48.00
40868;DHT22;26586;50.708;22.412;2023-04-05T06:47:53;13.40;48.60
40868;DHT22;26586;50.708;22.412;2023-04-05T06:50:19;13.50;46.00
40868;DHT22;26586;50.708;22.412;2023-04-05T06:52:46;13.60;51.50
40868;DHT22;26586;50.708;22.412;2023-04-05T06:55:12;13.60;45.70
40868;DHT22;26586;50.708;22.412;2023-04-05T06:57:38;13.70;46.70
40868;DHT22;26586;50.708;22.412;2023-04-05T07:00:05;13.80;45.10
40868;DHT22;26586;50.708;22.412;2023-04-05T07:02:38;13.90;45.10
40868;DHT22;26586;50.708;22.412;2023-04-05T07:05:04;13.90;45.00
40868;DHT22;26586;50.708;22.412;2023-04-05T07:07:31;13.90;45.60
40868;DHT22;26586;50.708;22.412;2023-04-05T07:10:01;14.00;43.30
40868;DHT22;26586;50.708;22.412;2023-04-05T07:12:28;14.10;40.60
40868;DHT22;26586;50.708;22.412;2023-04-05T07:14:54;14.10;42.50
40868;DHT22;26586;50.708;22.412;2023-04-05T07:17:20;14.10;42.50
40868;DHT22;26586;50.708;22.412;2023-04-05T07:19:47;14.20;45.20
40868;DHT22;26586;50.708;22.412;2023-04-05T07:22:13;14.20;42.00
40868;DHT22;26586;50.708;22.412;2023-04-05T07:24:39;14.30;38.80
40868;DHT22;26586;50.708;22.412;2023-04-05T07:27:05;14.20;37.50
40868;DHT22;26586;50.708;22.412;2023-04-05T07:29:32;14.20;36.60
40868;DHT22;26586;50.708;22.412;2023-04-05T07:31:59;14.20;36.10
40868;DHT22;26586;50.708;22.412;2023-04-05T07:34:25;14.20;36.10
40868;DHT22;26586;50.708;22.412;2023-04-05T07:36:52;14.20;36.10
40868;DHT22;26586;50.708;22.412;2023-04-05T07:39:18;14.20;36.20
40868;DHT22;26586;50.708;22.412;2023-04-05T07:41:46;14.20;36.10
40868;DHT22;26586;50.708;22.412;2023-04-05T07:44:12;14.30;36.10
40868;DHT22;26586;50.708;22.412;2023-04-05T07:46:38;14.30;36.00
40868;DHT22;26586;50.708;22.412;2023-04-05T07:49:10;14.40;36.00
40868;DHT22;26586;50.708;22.412;2023-04-05T07:51:36;14.40;36.10
40868;DHT22;26586;50.708;22.412;2023-04-05T07:54:03;14.50;36.10
40868;DHT22;26586;50.708;22.412;2023-04-05T07:56:32;14.50;35.60
40868;DHT22;26586;50.708;22.412;2023-04-05T07:58:59;14.50;35.50
40868;DHT22;26586;50.708;22.412;2023-04-05T08:01:25;14.60;35.40
40868;DHT22;26586;50.708;22.412;2023-04-05T08:03:54;14.60;34.90
40868;DHT22;26586;50.708;22.412;2023-04-05T08:06:23;14.70;34.30
40868;DHT22;26586;50.708;22.412;2023-04-05T08:08:50;14.70;34.40
40868;DHT22;26586;50.708;22.412;2023-04-05T08:11:16;14.70;34.70
40868;DHT22;26586;50.708;22.412;2023-04-05T08:13:42;14.80;34.80
40868;DHT22;26586;50.708;22.412;2023-04-05T08:16:09;14.80;34.80
40868;DHT22;26586;50.708;22.412;2023-04-05T08:18:36;14.80;34.70
40868;DHT22;26586;50.708;22.412;2023-04-05T08:21:02;14.90;35.90
40868;DHT22;26586;50.708;22.412;2023-04-05T08:23:29;15.00;35.40
40868;DHT22;26586;50.708;22.412;2023-04-05T08:25:56;15.10;36.70
40868;DHT22;26586;50.708;22.412;2023-04-05T08:28:22;15.10;36.00
40868;DHT22;26586;50.708;22.412;2023-04-05T08:30:52;15.30;36.80
40868;DHT22;26586;50.708;22.412;2023-04-05T08:33:20;15.40;36.20
40868;DHT22;26586;50.708;22.412;2023-04-05T08:35:46;15.50;37.20
40868;DHT22;26586;50.708;22.412;2023-04-05T08:38:13;15.60;35.40
40868;DHT22;26586;50.708;22.412;2023-04-05T08:40:41;15.60;36.20
40868;DHT22;26586;50.708;22.412;2023-04-05T08:43:37;15.70;36.00
40868;DHT22;26586;50.708;22.412;2023-04-05T08:46:07;15.80;39.10
40868;DHT22;26586;50.708;22.412;2023-04-05T08:48:34;15.90;36.60
40868;DHT22;26586;50.708;22.412;2023-04-05T08:51:03;15.90;35.50
40868;DHT22;26586;50.708;22.412;2023-04-05T08:53:30;16.00;34.70
40868;DHT22;26586;50.708;22.412;2023-04-05T08:55:59;16.00;34.10
40868;DHT22;26586;50.708;22.412;2023-04-05T08:58:27;16.10;34.30
40868;DHT22;26586;50.708;22.412;2023-04-05T09:00:57;16.10;34.50
40868;DHT22;26586;50.708;22.412;2023-04-05T09:03:44;16.10;32.40
40868;DHT22;26586;50.708;22.412;2023-04-05T09:06:12;16.20;34.00
40868;DHT22;26586;50.708;22.412;2023-04-05T09:08:39;16.20;35.60
40868;DHT22;26586;50.708;22.412;2023-04-05T09:11:07;16.30;34.90
40868;DHT22;26586;50.708;22.412;2023-04-05T09:13:33;16.30;34.00
40868;DHT22;26586;50.708;22.412;2023-04-05T09:16:00;16.40;33.90
40868;DHT22;26586;50.708;22.412;2023-04-05T09:18:27;16.40;36.10
40868;DHT22;26586;50.708;22.412;2023-04-05T09:21:04;16.40;35.00
40868;DHT22;26586;50.708;22.412;2023-04-05T09:23:34;16.50;32.90
40868;DHT22;26586;50.708;22.412;2023-04-05T09:26:18;16.50;31.50
40868;DHT22;26586;50.708;22.412;2023-04-05T09:28:46;16.50;32.30
40868;DHT22;26586;50.708;22.412;2023-04-05T09:31:35;16.60;32.10
40868;DHT22;26586;50.708;22.412;2023-04-05T09:34:03;16.60;32.40
40868;DHT22;26586;50.708;22.412;2023-04-05T09:36:32;16.60;32.60
40868;DHT22;26586;50.708;22.412;2023-04-05T09:39:08;16.60;32.50
40868;DHT22;26586;50.708;22.412;2023-04-05T09:41:35;16.60;32.10
40868;DHT22;26586;50.708;22.412;2023-04-05T09:44:02;16.70;31.60
40868;DHT22;26586;50.708;22.412;2023-04-05T09:46:35;16.60;31.70
40868;DHT22;26586;50.708;22.412;2023-04-05T09:49:04;16.60;31.70
40868;DHT22;26586;50.708;22.412;2023-04-05T09:51:37;16.70;31.50
40868;DHT22;26586;50.708;22.412;2023-04-05T09:54:08;16.70;32.40
40868;DHT22;26586;50.708;22.412;2023-04-05T09:56:37;16.70;31.30
40868;DHT22;26586;50.708;22.412;2023-04-05T09:59:09;16.70;32.10
40868;DHT22;26586;50.708;22.412;2023-04-05T10:01:37;16.80;31.00
40868;DHT22;26586;50.708;22.412;2023-04-05T10:04:04;16.80;30.90
40868;DHT22;26586;50.708;22.412;2023-04-05T10:06:38;16.80;30.90
40868;DHT22;26586;50.708;22.412;2023-04-05T10:09:06;16.80;31.00
40868;DHT22;26586;50.708;22.412;2023-04-05T10:11:33;16.80;30.70
40868;DHT22;26586;50.708;22.412;2023-04-05T10:14:00;16.80;30.20
40868;DHT22;26586;50.708;22.412;2023-04-05T10:16:31;16.80;31.10
40868;DHT22;26586;50.708;22.412;2023-04-05T10:18:58;16.80;33.60
40868;DHT22;26586;50.708;22.412;2023-04-05T10:21:29;16.80;32.80
40868;DHT22;26586;50.708;22.412;2023-04-05T10:26:46;16.70;31.50
40868;DHT22;26586;50.708;22.412;2023-04-05T10:29:21;16.80;30.60
40868;DHT22;26586;50.708;22.412;2023-04-05T10:31:52;16.80;30.90
40868;DHT22;26586;50.708;22.412;2023-04-05T10:34:59;16.80;30.60
40868;DHT22;26586;50.708;22.412;2023-04-05T10:37:32;16.80;30.10
40868;DHT22;26586;50.708;22.412;2023-04-05T10:40:02;16.70;29.80
40868;DHT22;26586;50.708;22.412;2023-04-05T10:42:44;16.70;31.70
40868;DHT22;26586;50.708;22.412;2023-04-05T10:45:12;16.70;31.20
40868;DHT22;26586;50.708;22.412;2023-04-05T10:50:38;16.70;30.00
40868;DHT22;26586;50.708;22.412;2023-04-05T10:53:05;16.70;34.10
40868;DHT22;26586;50.708;22.412;2023-04-05T10:55:31;16.70;30.80
40868;DHT22;26586;50.708;22.412;2023-04-05T10:57:58;16.70;37.20
40868;DHT22;26586;50.708;22.412;2023-04-05T11:00:25;16.80;43.20
40868;DHT22;26586;50.708;22.412;2023-04-05T11:02:54;16.80;38.00
40868;DHT22;26586;50.708;22.412;2023-04-05T11:05:40;16.80;33.30
40868;DHT22;26586;50.708;22.412;2023-04-05T11:08:07;16.70;33.10
40868;DHT22;26586;50.708;22.412;2023-04-05T11:10:36;16.80;33.30
40868;DHT22;26586;50.708;22.412;2023-04-05T11:13:04;16.70;32.20
40868;DHT22;26586;50.708;22.412;2023-04-05T11:15:31;16.70;30.60
40868;DHT22;26586;50.708;22.412;2023-04-05T11:18:11;16.70;32.70
40868;DHT22;26586;50.708;22.412;2023-04-05T11:20:47;16.70;30.30
40868;DHT22;26586;50.708;22.412;2023-04-05T11:23:20;16.70;31.20
40868;DHT22;26586;50.708;22.412;2023-04-05T11:25:55;16.70;34.10
40868;DHT22;26586;50.708;22.412;2023-04-05T11:28:37;16.70;30.60
40868;DHT22;26586;50.708;22.412;2023-04-05T11:31:18;16.60;30.10
40868;DHT22;26586;50.708;22.412;2023-04-05T11:36:11;16.60;32.50
40868;DHT22;26586;50.708;22.412;2023-04-05T11:38:43;16.60;32.50
40868;DHT22;26586;50.708;22.412;2023-04-05T11:41:16;16.60;35.50
40868;DHT22;26586;50.708;22.412;2023-04-05T11:43:45;16.60;33.60
40868;DHT22;26586;50.708;22.412;2023-04-05T11:46:17;16.70;34.10
40868;DHT22;26586;50.708;22.412;2023-04-05T11:48:49;16.70;30.00
40868;DHT22;26586;50.708;22.412;2023-04-05T11:51:17;16.60;31.70
40868;DHT22;26586;50.708;22.412;2023-04-05T11:53:46;16.60;31.70
40868;DHT22;26586;50.708;22.412;2023-04-05T11:56:12;16.70;30.00
40868;DHT22;26586;50.708;22.412;2023-04-05T11:58:41;16.60;31.60
40868;DHT22;26586;50.708;22.412;2023-04-05T12:01:08;16.60;33.90
40868;DHT22;26586;50.708;22.412;2023-04-05T12:03:37;16.70;34.80
40868;DHT22;26586;50.708;22.412;2023-04-05T12:06:04;16.70;37.20
40868;DHT22;26586;50.708;22.412;2023-04-05T12:11:09;16.70;31.50
40868;DHT22;26586;50.708;22.412;2023-04-05T12:13:37;16.70;30.00
40868;DHT22;26586;50.708;22.412;2023-04-05T12:16:05;16.70;33.30
40868;DHT22;26586;50.708;22.412;2023-04-05T12:18:33;16.70;37.60
40868;DHT22;26586;50.708;22.412;2023-04-05T12:21:06;16.70;37.80
40868;DHT22;26586;50.708;22.412;2023-04-05T12:23:32;16.80;33.40
40868;DHT22;26586;50.708;22.412;2023-04-05T12:25:59;16.80;33.00
40868;DHT22;26586;50.708;22.412;2023-04-05T12:28:52;16.80;32.70
40868;DHT22;26586;50.708;22.412;2023-04-05T12:31:38;16.80;32.00
40868;DHT22;26586;50.708;22.412;2023-04-05T12:34:04;16.80;36.20
40868;DHT22;26586;50.708;22.412;2023-04-05T12:36:31;16.90;34.80
40868;DHT22;26586;50.708;22.412;2023-04-05T12:38:57;16.80;30.60
40868;DHT22;26586;50.708;22.412;2023-04-05T12:41:30;16.90;31.40
40868;DHT22;26586;50.708;22.412;2023-04-05T12:43:57;16.80;33.30
40868;DHT22;26586;50.708;22.412;2023-04-05T12:46:45;16.90;34.60
40868;DHT22;26586;50.708;22.412;2023-04-05T12:49:15;16.90;40.00
40868;DHT22;26586;50.708;22.412;2023-04-05T12:51:43;16.90;45.50
40868;DHT22;26586;50.708;22.412;2023-04-05T12:54:22;16.90;35.80
40868;DHT22;26586;50.708;22.412;2023-04-05T12:56:49;16.90;38.40
40868;DHT22;26586;50.708;22.412;2023-04-05T12:59:17;16.90;38.30
40868;DHT22;26586;50.708;22.412;2023-04-05T13:01:44;17.00;38.70
40868;DHT22;26586;50.708;22.412;2023-04-05T13:04:10;17.00;36.60
40868;DHT22;26586;50.708;22.412;2023-04-05T13:06:36;16.90;35.80
40868;DHT22;26586;50.708;22.412;2023-04-05T13:09:03;17.00;34.90
40868;DHT22;26586;50.708;22.412;2023-04-05T13:11:29;16.90;33.80
40868;DHT22;26586;50.708;22.412;2023-04-05T13:13:56;17.00;37.80
40868;DHT22;26586;50.708;22.412;2023-04-05T13:16:22;17.00;36.90
40868;DHT22;26586;50.708;22.412;2023-04-05T13:18:48;16.90;39.50
40868;DHT22;26586;50.708;22.412;2023-04-05T13:21:15;17.00;37.80
40868;DHT22;26586;50.708;22.412;2023-04-05T13:23:41;16.90;36.20
40868;DHT22;26586;50.708;22.412;2023-04-05T13:26:08;17.00;32.40
40868;DHT22;26586;50.708;22.412;2023-04-05T13:28:34;17.00;33.20
40868;DHT22;26586;50.708;22.412;2023-04-05T13:31:02;16.90;30.40
40868;DHT22;26586;50.708;22.412;2023-04-05T13:33:31;16.90;30.40
40868;DHT22;26586;50.708;22.412;2023-04-05T13:35:58;16.80;29.40
40868;DHT22;26586;50.708;22.412;2023-04-05T13:38:24;16.80;29.30
40868;DHT22;26586;50.708;22.412;2023-04-05T13:40:50;16.70;30.00
40868;DHT22;26586;50.708;22.412;2023-04-05T13:43:16;16.80;29.50
40868;DHT22;26586;50.708;22.412;2023-04-05T13:45:43;16.80;29.80
40868;DHT22;26586;50.708;22.412;2023-04-05T13:48:09;16.80;30.30
40868;DHT22;26586;50.708;22.412;2023-04-05T13:50:35;16.70;30.40
40868;DHT22;26586;50.708;22.412;2023-04-05T13:53:01;16.70;33.10
40868;DHT22;26586;50.708;22.412;2023-04-05T13:55:27;16.70;33.20
40868;DHT22;26586;50.708;22.412;2023-04-05T13:57:53;16.70;34.40
40868;DHT22;26586;50.708;22.412;2023-04-05T14:00:20;16.70;34.40
40868;DHT22;26586;50.708;22.412;2023-04-05T14:02:46;16.70;31.30
40868;DHT22;26586;50.708;22.412;2023-04-05T14:05:13;16.70;33.50
40868;DHT22;26586;50.708;22.412;2023-04-05T14:07:41;16.70;34.90
40868;DHT22;26586;50.708;22.412;2023-04-05T14:10:08;16.70;33.90
40868;DHT22;26586;50.708;22.412;2023-04-05T14:12:35;16.70;33.80
40868;DHT22;26586;50.708;22.412;2023-04-05T14:15:02;16.70;35.50
40868;DHT22;26586;50.708;22.412;2023-04-05T14:17:28;16.70;37.10
40868;DHT22;26586;50.708;22.412;2023-04-05T14:19:55;16.70;32.30
40868;DHT22;26586;50.708;22.412;2023-04-05T14:22:21;16.70;36.10
40868;DHT22;26586;50.708;22.412;2023-04-05T14:24:47;16.70;37.30
40868;DHT22;26586;50.708;22.412;2023-04-05T14:27:13;16.70;37.70
40868;DHT22;26586;50.708;22.412;2023-04-05T14:29:39;16.60;35.30
40868;DHT22;26586;50.708;22.412;2023-04-05T14:32:06;16.70;32.80
40868;DHT22;26586;50.708;22.412;2023-04-05T14:34:33;16.60;34.20
40868;DHT22;26586;50.708;22.412;2023-04-05T14:37:01;16.60;34.60
40868;DHT22;26586;50.708;22.412;2023-04-05T14:39:29;16.60;32.60
40868;DHT22;26586;50.708;22.412;2023-04-05T14:41:55;16.60;32.90
40868;DHT22;26586;50.708;22.412;2023-04-05T14:44:21;16.60;34.00
40868;DHT22;26586;50.708;22.412;2023-04-05T14:46:48;16.60;33.50
40868;DHT22;26586;50.708;22.412;2023-04-05T14:49:17;16.60;38.20
40868;DHT22;26586;50.708;22.412;2023-04-05T14:51:43;16.60;37.40
40868;DHT22;26586;50.708;22.412;2023-04-05T14:54:09;16.60;36.80
40868;DHT22;26586;50.708;22.412;2023-04-05T14:56:35;16.60;35.40
40868;DHT22;26586;50.708;22.412;2023-04-05T14:59:02;16.60;39.10
40868;DHT22;26586;50.708;22.412;2023-04-05T15:01:28;16.60;37.60
40868;DHT22;26586;50.708;22.412;2023-04-05T15:03:55;16.60;36.20
40868;DHT22;26586;50.708;22.412;2023-04-05T15:06:21;16.60;33.50
40868;DHT22;26586;50.708;22.412;2023-04-05T15:08:47;16.50;37.20
40868;DHT22;26586;50.708;22.412;2023-04-05T15:11:13;16.50;37.10
40868;DHT22;26586;50.708;22.412;2023-04-05T15:13:39;16.50;38.80
40868;DHT22;26586;50.708;22.412;2023-04-05T15:16:05;16.50;38.50
40868;DHT22;26586;50.708;22.412;2023-04-05T15:18:32;16.50;37.90
40868;DHT22;26586;50.708;22.412;2023-04-05T15:20:58;16.50;38.40
40868;DHT22;26586;50.708;22.412;2023-04-05T15:23:25;16.50;40.00
40868;DHT22;26586;50.708;22.412;2023-04-05T15:25:51;16.50;37.00
40868;DHT22;26586;50.708;22.412;2023-04-05T15:28:18;16.50;34.40
40868;DHT22;26586;50.708;22.412;2023-04-05T15:30:44;16.50;35.30
40868;DHT22;26586;50.708;22.412;2023-04-05T15:33:10;16.50;38.70
40868;DHT22;26586;50.708;22.412;2023-04-05T15:35:36;16.40;36.40
40868;DHT22;26586;50.708;22.412;2023-04-05T15:38:03;16.40;36.70
40868;DHT22;26586;50.708;22.412;2023-04-05T15:40:29;16.40;38.40
40868;DHT22;26586;50.708;22.412;2023-04-05T15:42:55;16.40;39.80
40868;DHT22;26586;50.708;22.412;2023-04-05T15:45:21;16.40;36.20
40868;DHT22;26586;50.708;22.412;2023-04-05T15:47:48;16.40;39.10